Time;durP1;ratioP1;P1;durP2;ratioP2;P2;SDS_P1;SDS_P2;PMS_P1;PMS_P2;Temp;Humidity;BMP_temperature;BMP_pressure;BME280_temperature;BME280_humidity;BME280_pressure;Samples;Min_cycle;Max_cycle;Signal;HPM_P1;HPM_P2
2021/01/25 00:01:42;;;;;;;6.03;3.80;;;2.70;99.90;;;;;;5092319;28;20992;-68
2021/01/25 00:04:09;;;;;;;4.67;4.20;;;2.60;99.90;;;;;;5091717;28;20514;-68
2021/01/25 00:06:35;;;;;;;5.40;3.37;;;2.60;99.90;;;;;;5091660;28;20525;-69
2021/01/25 00:09:03;;;;;;;4.53;3.67;;;2.70;99.90;;;;;;5092241;28;20488;-68
2021/01/25 00:11:30;;;;;;;7.07;3.80;;;2.70;99.90;;;;;;5091894;28;20524;-68
2021/01/25 00:13:56;;;;;;;5.63;3.87;;;2.40;99.90;;;;;;5091490;28;20453;-68
2021/01/25 00:16:22;;;;;;;4.53;3.70;;;2.40;99.90;;;;;;5091486;28;20639;-69
2021/01/25 00:18:49;;;;;;;4.40;3.50;;;2.40;99.90;;;;;;5091434;28;20477;-68
2021/01/25 00:21:17;;;;;;;4.47;4.03;;;2.50;99.90;;;;;;5092237;28;20444;-68
2021/01/25 00:23:45;;;;;;;5.80;4.63;;;2.60;99.90;;;;;;5090984;28;20449;-68
2021/01/25 00:26:12;;;;;;;4.33;3.07;;;2.70;99.90;;;;;;5092025;28;20495;-68
2021/01/25 00:28:39;;;;;;;6.57;3.70;;;2.50;99.90;;;;;;5091483;28;20476;-68
2021/01/25 00:31:05;;;;;;;3.10;2.50;;;2.50;99.90;;;;;;5092082;28;20544;-68
2021/01/25 00:33:32;;;;;;;3.80;2.90;;;2.60;99.90;;;;;;5091162;28;20516;-68
2021/01/25 00:35:59;;;;;;;3.13;2.50;;;2.70;99.90;;;;;;5092010;28;20443;-68
2021/01/25 00:38:25;;;;;;;4.00;2.70;;;2.60;99.90;;;;;;5091791;28;20528;-68
2021/01/25 00:40:52;;;;;;;4.80;2.83;;;2.80;99.90;;;;;;5091662;28;20920;-68
2021/01/25 00:43:19;;;;;;;5.70;3.20;;;2.60;99.90;;;;;;5090990;28;20536;-69
2021/01/25 00:45:46;;;;;;;4.03;2.50;;;2.50;99.90;;;;;;5091887;28;20840;-68
2021/01/25 00:48:12;;;;;;;3.50;3.00;;;2.40;99.90;;;;;;5092625;28;20504;-68
2021/01/25 00:50:39;;;;;;;3.60;3.30;;;2.50;99.90;;;;;;5091903;28;20494;-68
2021/01/25 00:53:05;;;;;;;5.07;3.33;;;2.50;99.90;;;;;;5098181;28;20536;-68
2021/01/25 00:55:32;;;;;;;4.60;2.93;;;2.30;99.90;;;;;;5091885;28;20524;-68
2021/01/25 00:57:58;;;;;;;4.53;3.90;;;2.20;99.90;;;;;;5092657;28;20441;-69
2021/01/25 01:00:25;;;;;;;5.30;3.40;;;2.30;99.90;;;;;;5091311;28;20529;-68
2021/01/25 01:02:52;;;;;;;4.70;3.13;;;2.20;99.90;;;;;;5090908;28;20455;-68
2021/01/25 01:05:18;;;;;;;6.97;3.83;;;2.10;99.90;;;;;;5090305;28;20985;-68
2021/01/25 01:07:44;;;;;;;3.23;2.93;;;2.10;99.90;;;;;;5091490;28;20441;-68
2021/01/25 01:10:11;;;;;;;2.73;2.53;;;2.30;99.90;;;;;;5091444;28;20540;-68
2021/01/25 01:12:37;;;;;;;3.70;2.70;;;2.40;99.90;;;;;;5090487;28;20839;-69
2021/01/25 01:15:10;;;;;;;4.17;3.30;;;2.40;99.90;;;;;;5091130;28;20536;-68
2021/01/25 01:17:38;;;;;;;4.53;3.47;;;2.10;99.90;;;;;;5089720;28;20476;-68
2021/01/25 01:20:05;;;;;;;5.63;3.37;;;2.30;99.90;;;;;;5090505;28;20559;-68
2021/01/25 01:22:32;;;;;;;6.30;3.47;;;2.40;99.90;;;;;;5089790;28;21002;-68
2021/01/25 01:24:58;;;;;;;5.80;3.13;;;2.20;99.90;;;;;;5088236;28;20528;-68
2021/01/25 01:27:24;;;;;;;5.40;3.63;;;2.00;99.90;;;;;;5089977;28;20531;-68
2021/01/25 01:29:52;;;;;;;3.97;3.43;;;2.00;99.90;;;;;;5090514;28;20492;-68
2021/01/25 01:32:18;;;;;;;3.70;3.13;;;2.10;99.90;;;;;;5089400;28;20558;-68
2021/01/25 01:34:46;;;;;;;2.67;2.47;;;1.90;99.90;;;;;;5090718;28;20577;-68
2021/01/25 01:37:12;;;;;;;5.23;3.00;;;1.90;99.90;;;;;;5090171;28;20531;-68
2021/01/25 01:39:38;;;;;;;4.70;3.30;;;1.90;99.90;;;;;;5090341;28;20546;-68
2021/01/25 01:42:06;;;;;;;5.33;3.70;;;2.10;99.90;;;;;;5089781;28;20468;-68
2021/01/25 01:44:32;;;;;;;4.10;3.50;;;2.00;99.90;;;;;;5090543;28;20520;-68
2021/01/25 01:46:59;;;;;;;4.83;4.10;;;2.00;99.90;;;;;;5090395;28;20944;-68
2021/01/25 01:49:26;;;;;;;4.07;3.57;;;2.10;99.90;;;;;;5089862;28;20566;-68
2021/01/25 01:51:53;;;;;;;4.50;3.50;;;1.90;99.90;;;;;;5090565;28;20994;-68
2021/01/25 01:54:21;;;;;;;4.47;3.80;;;1.80;99.90;;;;;;5089858;28;20451;-68
2021/01/25 01:56:47;;;;;;;6.07;3.43;;;1.80;1.00;;;;;;5085390;28;20471;-68
2021/01/25 01:59:14;;;;;;;4.70;3.80;;;1.80;1.00;;;;;;5090097;28;20534;-68
2021/01/25 02:01:40;;;;;;;4.00;3.10;;;2.00;1.00;;;;;;5089949;28;20448;-68
2021/01/25 02:04:09;;;;;;;3.57;2.97;;;1.90;1.00;;;;;;5089374;28;20504;-68
2021/01/25 02:06:35;;;;;;;5.07;3.50;;;1.90;1.00;;;;;;5089000;28;20446;-69
2021/01/25 02:09:05;;;;;;;7.13;3.90;;;2.10;1.00;;;;;;5090150;28;20542;-68
2021/01/25 02:11:33;;;;;;;10.80;3.50;;;2.10;99.90;;;;;;5089714;28;20515;-68
2021/01/25 02:14:01;;;;;;;6.20;3.60;;;2.10;99.90;;;;;;5090752;28;20785;-68
2021/01/25 02:16:28;;;;;;;3.43;3.13;;;1.90;1.00;;;;;;5089914;28;20444;-68
2021/01/25 02:18:54;;;;;;;5.10;2.77;;;1.80;1.00;;;;;;5089772;28;21120;-68
2021/01/25 02:21:22;;;;;;;3.67;2.80;;;1.80;1.00;;;;;;5090019;28;20453;-68
2021/01/25 02:24:06;;;;;;;5.77;3.80;;;1.90;1.00;;;;;;5089588;28;20968;-68
2021/01/25 02:26:50;;;;;;;6.07;3.10;;;1.90;1.00;;;;;;5089757;28;20445;-68
2021/01/25 02:29:19;;;;;;;3.47;2.90;;;1.70;92.30;;;;;;5089737;28;20480;-68
2021/01/25 02:31:47;;;;;;;5.57;3.37;;;1.60;99.90;;;;;;5090706;28;20641;-68
2021/01/25 02:34:14;;;;;;;4.33;3.00;;;1.70;99.90;;;;;;5089971;28;20452;-68
2021/01/25 02:36:43;;;;;;;5.73;3.43;;;1.90;99.90;;;;;;5090423;28;20452;-68
2021/01/25 02:39:10;;;;;;;6.40;4.00;;;1.80;6.30;;;;;;5090202;28;20445;-68
2021/01/25 02:41:36;;;;;;;3.87;3.57;;;1.90;99.90;;;;;;5088830;28;20444;-68
2021/01/25 02:44:04;;;;;;;5.80;3.77;;;2.00;99.90;;;;;;5089751;28;20449;-68
2021/01/25 02:46:31;;;;;;;4.33;3.53;;;2.00;99.90;;;;;;5090208;28;20520;-68
2021/01/25 02:48:58;;;;;;;4.70;3.00;;;2.00;99.90;;;;;;5089787;28;20514;-68
2021/01/25 02:51:25;;;;;;;4.73;3.43;;;1.90;99.90;;;;;;5090122;28;20800;-68
2021/01/25 02:53:51;;;;;;;7.23;4.20;;;1.90;99.90;;;;;;5088812;28;20444;-68
2021/01/25 02:56:18;;;;;;;4.27;3.63;;;1.90;99.90;;;;;;5089812;28;20472;-70
2021/01/25 02:58:46;;;;;;;3.70;3.30;;;1.90;99.90;;;;;;5089495;28;20444;-68
2021/01/25 03:01:12;;;;;;;4.63;3.57;;;2.00;99.90;;;;;;5091780;28;20984;-68
2021/01/25 03:03:41;;;;;;;6.23;3.20;;;1.90;99.90;;;;;;5088486;28;20452;-68
2021/01/25 03:06:07;;;;;;;6.97;3.87;;;1.80;99.90;;;;;;5090224;28;20555;-68
2021/01/25 03:08:34;;;;;;;4.80;3.40;;;1.80;1.00;;;;;;5089210;28;20532;-68
2021/01/25 03:11:00;;;;;;;3.77;3.30;;;1.90;1.00;;;;;;5090319;28;20448;-68
2021/01/25 03:13:28;;;;;;;6.53;3.87;;;1.90;1.00;;;;;;5089024;28;20445;-68
2021/01/25 03:15:55;;;;;;;5.93;4.13;;;1.70;99.90;;;;;;5091693;28;20519;-68
2021/01/25 03:18:22;;;;;;;4.90;3.87;;;1.60;1.00;;;;;;5092290;28;20857;-68
2021/01/25 03:20:50;;;;;;;6.23;5.27;;;1.60;1.00;;;;;;5093208;28;20450;-68
2021/01/25 03:23:17;;;;;;;6.93;3.63;;;1.50;1.00;;;;;;5092263;28;20988;-68
2021/01/25 03:25:43;;;;;;;4.13;3.70;;;1.60;99.90;;;;;;5092989;28;20451;-68
2021/01/25 03:28:10;;;;;;;6.70;5.00;;;1.50;1.00;;;;;;5092295;28;20480;-68
2021/01/25 03:30:37;;;;;;;6.70;4.83;;;1.30;1.00;;;;;;5092262;28;20534;-68
2021/01/25 03:33:03;;;;;;;7.97;3.50;;;1.20;7.50;;;;;;5093891;28;20444;-68
2021/01/25 03:35:30;;;;;;;5.37;4.87;;;1.20;99.90;;;;;;5094487;28;20534;-68
2021/01/25 03:37:57;;;;;;;5.90;5.07;;;1.20;99.90;;;;;;5092548;28;20998;-68
2021/01/25 03:40:23;;;;;;;5.80;3.97;;;1.30;99.90;;;;;;5092391;28;20451;-68
2021/01/25 03:42:50;;;;;;;6.07;4.80;;;1.40;99.90;;;;;;5092340;28;20512;-68
2021/01/25 03:45:17;;;;;;;6.00;4.53;;;1.40;99.90;;;;;;5097603;28;20534;-68
2021/01/25 03:47:43;;;;;;;5.23;4.40;;;1.40;99.90;;;;;;5079486;28;20522;-68
2021/01/25 03:50:11;;;;;;;4.80;4.20;;;1.50;99.90;;;;;;5093070;28;20463;-68
2021/01/25 03:52:37;;;;;;;5.60;4.40;;;1.70;99.90;;;;;;5091665;28;20769;-69
2021/01/25 03:55:06;;;;;;;5.90;4.50;;;1.70;99.90;;;;;;5092845;28;20436;-68
2021/01/25 03:57:32;;;;;;;5.57;4.50;;;1.80;99.90;;;;;;5092046;28;20457;-69
2021/01/25 03:59:58;;;;;;;6.07;4.47;;;1.90;99.90;;;;;;5092556;28;20868;-68
2021/01/25 04:02:26;;;;;;;4.83;4.33;;;1.90;99.90;;;;;;5091764;28;20610;-68
2021/01/25 04:04:52;;;;;;;6.70;4.50;;;1.90;99.90;;;;;;5101825;28;20440;-68
2021/01/25 04:07:19;;;;;;;6.10;4.63;;;2.00;99.90;;;;;;5092058;28;20533;-68
2021/01/25 04:09:46;;;;;;;5.07;4.17;;;2.00;99.90;;;;;;5092731;28;20575;-67
2021/01/25 04:12:13;;;;;;;5.80;3.90;;;2.10;99.90;;;;;;5092045;28;20528;-68
2021/01/25 04:14:39;;;;;;;9.43;4.67;;;2.10;99.90;;;;;;5091300;28;20444;-67
2021/01/25 04:17:06;;;;;;;7.10;3.97;;;2.10;99.90;;;;;;5093020;28;20551;-68
2021/01/25 04:19:32;;;;;;;7.23;4.57;;;2.10;99.90;;;;;;5091876;28;20521;-68
2021/01/25 04:21:59;;;;;;;6.70;4.73;;;2.20;99.90;;;;;;5099338;28;20542;-68
2021/01/25 04:24:25;;;;;;;6.23;3.70;;;2.20;99.90;;;;;;5091779;28;20505;-68
2021/01/25 04:26:51;;;;;;;7.50;3.80;;;2.10;99.90;;;;;;5092475;28;20490;-67
2021/01/25 04:29:19;;;;;;;5.60;4.73;;;2.20;99.90;;;;;;5091677;28;20471;-68
2021/01/25 04:31:45;;;;;;;6.47;4.27;;;2.10;99.90;;;;;;5091779;28;20436;-67
2021/01/25 04:34:11;;;;;;;5.07;3.90;;;2.20;99.90;;;;;;5092221;28;20440;-67
2021/01/25 04:36:38;;;;;;;4.83;3.67;;;2.10;99.90;;;;;;5091168;28;20433;-67
2021/01/25 04:39:04;;;;;;;6.90;4.23;;;2.20;99.90;;;;;;5092389;28;20536;-67
2021/01/25 04:41:31;;;;;;;4.03;3.60;;;2.20;99.90;;;;;;5091658;28;20593;-67
2021/01/25 04:43:59;;;;;;;4.20;3.57;;;2.20;99.90;;;;;;5093151;28;20453;-67
2021/01/25 04:46:27;;;;;;;5.90;4.63;;;2.20;99.90;;;;;;5087627;28;20445;-68
2021/01/25 04:48:53;;;;;;;6.57;4.40;;;2.20;99.90;;;;;;5089355;28;20480;-68
2021/01/25 04:51:22;;;;;;;3.53;3.23;;;2.20;99.90;;;;;;5088999;28;20456;-68
2021/01/25 04:53:48;;;;;;;4.77;4.00;;;2.20;99.90;;;;;;5091692;28;20520;-68
2021/01/25 04:56:15;;;;;;;4.13;3.73;;;2.10;99.90;;;;;;5092223;28;20514;-68
2021/01/25 04:58:42;;;;;;;4.10;3.70;;;2.20;99.90;;;;;;5090709;28;20903;-67
2021/01/25 05:01:09;;;;;;;4.50;3.57;;;2.00;99.90;;;;;;5087343;28;20445;-67
2021/01/25 05:03:36;;;;;;;5.90;4.60;;;2.20;99.90;;;;;;5090595;28;20454;-67
2021/01/25 05:06:02;;;;;;;5.47;4.10;;;2.20;99.90;;;;;;5093512;28;20530;-67
2021/01/25 05:08:29;;;;;;;5.83;4.40;;;2.20;99.90;;;;;;5100260;28;20468;-67
2021/01/25 05:10:55;;;;;;;5.70;3.87;;;2.30;99.90;;;;;;5098919;28;20539;-68
2021/01/25 05:13:22;;;;;;;4.30;3.90;;;2.40;99.90;;;;;;5088873;28;20908;-68
2021/01/25 05:15:51;;;;;;;3.63;3.23;;;2.40;99.90;;;;;;5091528;28;20511;-67
2021/01/25 05:18:22;;;;;;;5.03;3.77;;;2.20;99.90;;;;;;5090715;28;20460;-68
2021/01/25 05:20:53;;;;;;;6.87;3.97;;;2.20;99.90;;;;;;5091702;28;20436;-68
2021/01/25 05:23:20;;;;;;;6.60;3.70;;;2.30;99.90;;;;;;5090094;28;20472;-69
2021/01/25 05:25:47;;;;;;;5.37;3.97;;;2.40;99.90;;;;;;5091622;28;20450;-68
2021/01/25 05:28:15;;;;;;;5.23;4.40;;;2.30;99.90;;;;;;5091158;28;20541;-68
2021/01/25 05:30:41;;;;;;;4.93;3.20;;;2.30;99.90;;;;;;5090787;28;20476;-68
2021/01/25 05:33:07;;;;;;;5.50;4.13;;;2.30;99.90;;;;;;5091341;28;20535;-67
2021/01/25 05:35:34;;;;;;;6.70;4.07;;;2.30;99.90;;;;;;5090821;28;20523;-67
2021/01/25 05:38:04;;;;;;;5.57;4.37;;;2.30;99.90;;;;;;5090915;28;20535;-67
2021/01/25 05:40:31;;;;;;;5.33;4.60;;;2.40;99.90;;;;;;5090906;28;21040;-67
2021/01/25 05:42:58;;;;;;;4.47;4.03;;;2.30;99.90;;;;;;5090807;28;20531;-67
2021/01/25 05:45:27;;;;;;;5.33;4.83;;;2.30;99.90;;;;;;5090573;28;20528;-67
2021/01/25 05:47:56;;;;;;;4.47;4.10;;;2.40;99.90;;;;;;5090977;28;20514;-67
2021/01/25 05:50:27;;;;;;;4.93;4.47;;;2.40;99.90;;;;;;5090574;28;20548;-68
2021/01/25 05:52:54;;;;;;;7.77;4.67;;;2.40;99.90;;;;;;5090488;28;20454;-68
2021/01/25 05:55:22;;;;;;;7.03;5.80;;;2.50;99.90;;;;;;5090556;28;20468;-68
2021/01/25 05:57:48;;;;;;;4.40;4.00;;;2.40;99.90;;;;;;5090885;28;20493;-68
2021/01/25 06:00:16;;;;;;;6.80;4.80;;;2.40;99.90;;;;;;5090760;28;20487;-68
2021/01/25 06:02:46;;;;;;;4.10;3.70;;;2.40;99.90;;;;;;5090386;28;20452;-67
2021/01/25 06:05:18;;;;;;;4.43;4.00;;;2.40;99.90;;;;;;5091037;28;20445;-67
2021/01/25 06:07:49;;;;;;;5.03;4.33;;;2.40;99.90;;;;;;5091040;28;20530;-67
2021/01/25 06:10:21;;;;;;;4.13;3.60;;;2.20;99.90;;;;;;5090527;28;20528;-67
2021/01/25 06:12:57;;;;;;;4.30;3.77;;;2.30;99.90;;;;;;5090265;28;20456;-67
2021/01/25 06:15:27;;;;;;;4.53;3.27;;;2.30;99.90;;;;;;5090648;28;20444;-67
2021/01/25 06:17:57;;;;;;;8.27;4.50;;;2.30;99.90;;;;;;5091872;28;20499;-67
2021/01/25 06:20:25;;;;;;;8.93;4.20;;;2.20;99.90;;;;;;5090731;28;20524;-67
2021/01/25 06:22:52;;;;;;;11.00;3.50;;;2.10;99.90;;;;;;5090126;28;20917;-66
2021/01/25 06:25:19;;;;;;;4.80;3.93;;;2.10;99.90;;;;;;5090098;28;20955;-67
2021/01/25 06:27:46;;;;;;;5.57;3.87;;;1.90;99.90;;;;;;5090531;28;20546;-67
2021/01/25 06:30:14;;;;;;;9.90;4.40;;;1.90;99.90;;;;;;5090745;28;20845;-66
2021/01/25 06:32:42;;;;;;;6.43;4.37;;;2.10;99.90;;;;;;5090045;28;20468;-66
2021/01/25 06:35:13;;;;;;;4.20;3.80;;;2.10;99.90;;;;;;5090496;28;21006;-66
2021/01/25 06:37:40;;;;;;;3.83;3.53;;;2.30;99.90;;;;;;5090232;28;20459;-67
2021/01/25 06:40:08;;;;;;;5.60;4.20;;;2.30;99.90;;;;;;5090857;28;20461;-68
2021/01/25 06:42:37;;;;;;;9.23;4.47;;;2.30;99.90;;;;;;5089633;28;20563;-67
2021/01/25 06:45:05;;;;;;;5.00;4.17;;;2.30;99.90;;;;;;5090509;28;20533;-67
2021/01/25 06:47:34;;;;;;;6.07;3.90;;;2.20;99.90;;;;;;5090503;28;20528;-67
2021/01/25 06:50:01;;;;;;;10.83;4.30;;;2.30;99.90;;;;;;5091788;28;20542;-67
2021/01/25 06:52:28;;;;;;;5.77;4.87;;;2.30;99.90;;;;;;5093612;28;20472;-68
2021/01/25 06:55:00;;;;;;;4.40;3.63;;;2.20;99.90;;;;;;5094050;28;20451;-68
2021/01/25 06:57:27;;;;;;;4.63;4.13;;;2.10;99.90;;;;;;5093895;28;20565;-67
2021/01/25 06:59:56;;;;;;;4.77;4.07;;;2.00;99.90;;;;;;5094352;28;20453;-68
2021/01/25 07:02:24;;;;;;;4.90;3.90;;;2.00;99.90;;;;;;5093534;28;20456;-68
2021/01/25 07:04:57;;;;;;;4.80;4.20;;;2.40;99.90;;;;;;5094247;28;20452;-67
2021/01/25 07:07:26;;;;;;;4.57;4.17;;;2.10;99.90;;;;;;5093713;28;20501;-68
2021/01/25 07:09:53;;;;;;;5.00;3.33;;;2.20;99.90;;;;;;5093928;28;20939;-68
2021/01/25 07:12:22;;;;;;;6.50;4.10;;;2.30;99.90;;;;;;5093445;28;20476;-68
2021/01/25 07:14:49;;;;;;;4.93;3.83;;;2.30;99.90;;;;;;5093917;28;20440;-68
2021/01/25 07:17:16;;;;;;;9.40;4.00;;;2.20;99.90;;;;;;5093801;28;20945;-68
2021/01/25 07:19:43;;;;;;;5.10;4.10;;;2.00;99.90;;;;;;5093591;28;20835;-68
2021/01/25 07:22:12;;;;;;;8.93;4.10;;;1.90;99.90;;;;;;5093237;28;20940;-68
2021/01/25 07:24:40;;;;;;;5.80;4.00;;;2.10;99.90;;;;;;5093191;28;20456;-67
2021/01/25 07:27:06;;;;;;;5.30;3.60;;;2.20;99.90;;;;;;5093668;28;20449;-67
2021/01/25 07:29:33;;;;;;;4.93;4.43;;;2.10;99.90;;;;;;5093037;28;20479;-67
2021/01/25 07:32:01;;;;;;;6.90;4.07;;;1.90;99.90;;;;;;5093370;28;20452;-67
2021/01/25 07:34:30;;;;;;;5.67;4.10;;;2.10;99.90;;;;;;5093008;28;20487;-68
2021/01/25 07:36:57;;;;;;;6.00;4.23;;;2.20;99.90;;;;;;5093618;28;20545;-68
2021/01/25 07:39:25;;;;;;;7.53;3.77;;;2.20;99.90;;;;;;5092839;28;20539;-67
2021/01/25 07:41:51;;;;;;;4.67;3.83;;;2.10;99.90;;;;;;5093069;28;20476;-67
2021/01/25 07:44:18;;;;;;;10.60;4.50;;;2.20;99.90;;;;;;5092810;28;20997;-68
2021/01/25 07:46:47;;;;;;;4.90;4.20;;;2.20;99.90;;;;;;5093398;28;20475;-68
2021/01/25 07:49:14;;;;;;;6.37;3.63;;;2.20;99.90;;;;;;5079443;28;20480;-67
2021/01/25 07:51:41;;;;;;;6.00;4.30;;;2.30;99.90;;;;;;5092395;28;20477;-67
2021/01/25 07:54:15;;;;;;;5.50;4.00;;;2.40;99.90;;;;;;5079799;28;20440;-68
2021/01/25 07:56:42;;;;;;;5.93;3.90;;;2.30;99.90;;;;;;5092673;28;20486;-68
2021/01/25 07:59:11;;;;;;;5.37;3.97;;;2.30;99.90;;;;;;5092736;28;20993;-68
2021/01/25 08:01:45;;;;;;;5.50;4.60;;;2.30;99.90;;;;;;5091557;28;20457;-68
2021/01/25 08:04:15;;;;;;;6.20;4.07;;;2.20;99.90;;;;;;5092842;28;20444;-68
2021/01/25 08:06:43;;;;;;;9.03;4.40;;;2.20;99.90;;;;;;5092539;28;20453;-67
2021/01/25 08:09:12;;;;;;;6.67;4.00;;;2.20;99.90;;;;;;5092962;28;20982;-68
2021/01/25 08:11:40;;;;;;;4.53;3.90;;;2.20;99.90;;;;;;5091743;28;20547;-68
2021/01/25 08:14:16;;;;;;;5.03;4.53;;;2.10;99.90;;;;;;5092581;28;20949;-68
2021/01/25 08:16:48;;;;;;;24.40;6.97;;;2.20;99.90;;;;;;5092836;28;20448;-67
2021/01/25 08:19:19;;;;;;;7.30;4.80;;;2.30;99.90;;;;;;5092475;28;20664;-67
2021/01/25 08:21:53;;;;;;;5.20;4.70;;;2.40;99.90;;;;;;5092320;28;20451;-67
2021/01/25 08:24:19;;;;;;;7.20;4.60;;;2.50;99.90;;;;;;5091911;28;20535;-68
2021/01/25 08:26:54;;;;;;;5.00;4.30;;;2.40;99.90;;;;;;5092714;28;20527;-67
2021/01/25 08:29:27;;;;;;;5.93;4.47;;;2.50;99.90;;;;;;5091908;28;20511;-67
2021/01/25 08:31:53;;;;;;;5.90;3.60;;;2.50;99.90;;;;;;5092124;28;20466;-67
2021/01/25 08:34:27;;;;;;;5.13;4.47;;;2.50;99.90;;;;;;5091857;28;20536;-67
2021/01/25 08:37:00;;;;;;;6.87;5.40;;;2.60;99.90;;;;;;5092311;28;20527;-67
2021/01/25 08:39:38;;;;;;;9.73;5.00;;;2.80;99.90;;;;;;5091807;28;20488;-68
2021/01/25 08:42:11;;;;;;;6.47;4.50;;;2.90;99.90;;;;;;5091713;28;20445;-67
2021/01/25 08:44:47;;;;;;;8.33;4.40;;;3.00;99.90;;;;;;5091557;28;20480;-67
2021/01/25 08:47:16;;;;;;;6.57;4.60;;;2.90;99.90;;;;;;5091904;28;20443;-67
2021/01/25 08:49:44;;;;;;;12.93;5.30;;;2.80;99.90;;;;;;5091728;28;20848;-67
2021/01/25 08:52:26;;;;;;;9.37;4.87;;;2.80;99.90;;;;;;5090911;28;20531;-67
2021/01/25 08:54:53;;;;;;;6.17;5.00;;;2.80;99.90;;;;;;5092060;28;20456;-67
2021/01/25 08:57:23;;;;;;;4.60;4.20;;;2.90;99.90;;;;;;5091703;28;20476;-67
2021/01/25 08:59:50;;;;;;;11.70;5.53;;;2.90;99.90;;;;;;5093874;28;20448;-67
2021/01/25 09:02:24;;;;;;;5.43;4.20;;;3.10;99.90;;;;;;5093739;28;20548;-67
2021/01/25 09:04:51;;;;;;;14.27;4.77;;;3.00;99.90;;;;;;5092150;28;20910;-67
2021/01/25 09:07:19;;;;;;;6.30;4.70;;;3.00;99.90;;;;;;5091343;28;20536;-67
2021/01/25 09:09:46;;;;;;;10.57;4.90;;;3.00;99.90;;;;;;5091903;28;20580;-67
2021/01/25 09:12:14;;;;;;;6.90;4.90;;;3.10;99.90;;;;;;5091194;28;20491;-67
2021/01/25 09:14:41;;;;;;;7.60;5.10;;;3.10;99.90;;;;;;5091330;28;20502;-67
2021/01/25 09:17:10;;;;;;;11.97;5.37;;;3.10;99.90;;;;;;5091758;28;20448;-67
2021/01/25 09:19:37;;;;;;;15.80;8.60;;;3.30;99.90;;;;;;5090754;28;20547;-68
2021/01/25 09:22:03;;;;;;;24.47;12.77;;;3.30;99.90;;;;;;5090983;28;20496;-67
2021/01/25 09:24:30;;;;;;;20.20;8.53;;;3.40;99.90;;;;;;5091321;28;21168;-67
2021/01/25 09:26:56;;;;;;;14.67;6.57;;;3.50;99.90;;;;;;5091208;28;20499;-67
2021/01/25 09:29:23;;;;;;;14.90;8.90;;;3.40;99.90;;;;;;5090627;28;20523;-67
2021/01/25 09:31:49;;;;;;;14.20;7.77;;;3.40;99.90;;;;;;5090862;28;20494;-67
2021/01/25 09:34:17;;;;;;;16.07;8.00;;;3.40;99.90;;;;;;5091137;28;20890;-67
2021/01/25 09:36:43;;;;;;;8.67;5.90;;;3.50;99.90;;;;;;5091274;28;20501;-67
2021/01/25 09:39:13;;;;;;;9.10;6.90;;;3.50;99.90;;;;;;5091260;28;20616;-67
2021/01/25 09:41:41;;;;;;;15.70;6.33;;;3.60;99.90;;;;;;5090441;28;20501;-67
2021/01/25 09:44:07;;;;;;;13.50;5.67;;;3.30;99.90;;;;;;5091195;28;20498;-68
2021/01/25 09:46:34;;;;;;;8.93;6.57;;;3.50;99.90;;;;;;5090829;28;20448;-67
2021/01/25 09:49:00;;;;;;;7.50;5.80;;;3.70;99.90;;;;;;5091126;28;20514;-67
2021/01/25 09:51:28;;;;;;;7.80;5.10;;;3.60;99.90;;;;;;5090372;28;20508;-67
2021/01/25 09:53:54;;;;;;;5.33;4.83;;;3.60;99.90;;;;;;5090797;28;21013;-67
2021/01/25 09:56:21;;;;;;;12.73;5.43;;;3.60;99.90;;;;;;5090661;28;20843;-68
2021/01/25 09:58:47;;;;;;;5.20;4.70;;;3.80;99.90;;;;;;5090897;28;20493;-67
2021/01/25 10:01:14;;;;;;;5.10;4.60;;;3.80;99.90;;;;;;5090627;28;20496;-67
2021/01/25 10:03:40;;;;;;;5.30;4.13;;;3.80;99.90;;;;;;5090491;28;20443;-67
2021/01/25 10:06:08;;;;;;;8.30;4.40;;;3.80;99.90;;;;;;5090841;28;20918;-67
2021/01/25 10:08:36;;;;;;;7.87;4.23;;;4.00;1.00;;;;;;5090257;28;20858;-67
2021/01/25 10:11:03;;;;;;;8.20;4.17;;;3.90;1.00;;;;;;5090217;28;20534;-67
2021/01/25 10:13:30;;;;;;;7.17;5.33;;;4.10;99.90;;;;;;5090541;28;21017;-67
2021/01/25 10:15:56;;;;;;;5.03;4.10;;;4.00;11.70;;;;;;5090608;28;20487;-67
2021/01/25 10:18:23;;;;;;;10.50;5.97;;;4.10;41.10;;;;;;5090007;28;20448;-67
2021/01/25 10:20:50;;;;;;;12.07;7.50;;;4.20;39.90;;;;;;5090710;28;20477;-67
2021/01/25 10:23:16;;;;;;;10.80;6.67;;;4.10;9.70;;;;;;5090120;28;20872;-67
2021/01/25 10:25:44;;;;;;;25.67;10.07;;;4.20;58.90;;;;;;5095565;28;20446;-67
2021/01/25 10:28:10;;;;;;;20.97;9.20;;;4.60;1.00;;;;;;5094966;28;20909;-67
2021/01/25 10:30:37;;;;;;;16.90;7.70;;;4.60;1.00;;;;;;5094515;28;20574;-67
2021/01/25 10:33:04;;;;;;;8.17;5.53;;;4.60;1.00;;;;;;5094818;28;20459;-67
2021/01/25 10:35:30;;;;;;;15.67;5.63;;;4.70;1.00;;;;;;5093808;28;20468;-67
2021/01/25 10:37:58;;;;;;;6.93;4.20;;;4.70;1.00;;;;;;5094656;28;20532;-67
2021/01/25 10:40:25;;;;;;;7.20;4.60;;;4.70;1.00;;;;;;5094279;28;20513;-66
2021/01/25 10:42:52;;;;;;;9.63;5.17;;;4.40;99.90;;;;;;5094527;28;20479;-67
2021/01/25 10:45:19;;;;;;;6.67;4.93;;;4.30;1.00;;;;;;5094506;28;20469;-67
2021/01/25 10:47:45;;;;;;;10.87;5.57;;;4.40;1.00;;;;;;5094706;28;20451;-67
2021/01/25 10:50:13;;;;;;;13.60;5.10;;;4.30;1.00;;;;;;5094467;28;20882;-67
2021/01/25 10:52:40;;;;;;;5.37;4.00;;;4.20;1.00;;;;;;5080119;28;20535;-67
2021/01/25 10:55:08;;;;;;;13.20;5.33;;;4.40;1.00;;;;;;5094468;28;20878;-67
2021/01/25 10:57:34;;;;;;;11.27;5.70;;;4.50;1.00;;;;;;5093763;28;20918;-67
2021/01/25 11:00:03;;;;;;;6.43;4.67;;;4.30;1.00;;;;;;5094217;28;20557;-67
2021/01/25 11:02:30;;;;;;;6.30;4.03;;;4.50;1.00;;;;;;5093383;28;21008;-67
2021/01/25 11:04:56;;;;;;;7.23;3.40;;;4.70;1.00;;;;;;5093815;28;20448;-67
2021/01/25 11:07:23;;;;;;;10.40;4.03;;;4.70;1.00;;;;;;5093543;28;20455;-67
2021/01/25 11:09:50;;;;;;;4.60;3.83;;;4.70;1.00;;;;;;5093556;28;20625;-67
2021/01/25 11:12:17;;;;;;;3.67;3.10;;;5.00;1.00;;;;;;5093494;28;20448;-67
2021/01/25 11:14:43;;;;;;;6.40;3.27;;;5.10;99.90;;;;;;5093779;28;20535;-67
2021/01/25 11:17:12;;;;;;;8.43;4.17;;;5.00;99.90;;;;;;5093618;28;20451;-67
2021/01/25 11:19:38;;;;;;;6.93;3.07;;;5.00;99.90;;;;;;5093213;28;20522;-67
2021/01/25 11:22:04;;;;;;;7.07;4.00;;;5.10;99.90;;;;;;5093509;28;20444;-67
2021/01/25 11:24:31;;;;;;;6.20;3.43;;;5.10;1.00;;;;;;5093481;28;20495;-67
2021/01/25 11:26:59;;;;;;;2.50;2.00;;;5.00;99.90;;;;;;5093640;28;20536;-68
2021/01/25 11:29:29;;;;;;;3.20;2.20;;;5.20;1.00;;;;;;5093080;28;20894;-68
2021/01/25 11:31:57;;;;;;;4.80;3.10;;;5.20;1.00;;;;;;5092973;28;20889;-68
2021/01/25 11:34:25;;;;;;;2.90;2.47;;;4.90;36.00;;;;;;5093076;28;20487;-68
2021/01/25 11:36:51;;;;;;;4.60;2.43;;;4.90;99.90;;;;;;5092613;28;20452;-68
2021/01/25 11:39:18;;;;;;;3.50;2.77;;;4.90;99.90;;;;;;5093355;28;20484;-68
2021/01/25 11:41:44;;;;;;;2.87;2.60;;;5.20;19.20;;;;;;5093085;28;20479;-68
2021/01/25 11:44:10;;;;;;;3.77;2.97;;;4.90;99.90;;;;;;5093649;28;20456;-68
2021/01/25 11:46:37;;;;;;;4.23;3.30;;;4.90;99.90;;;;;;5092762;28;20561;-68
2021/01/25 11:49:04;;;;;;;2.30;2.10;;;4.70;99.90;;;;;;5093154;28;20506;-68
2021/01/25 11:51:31;;;;;;;2.43;2.17;;;4.50;1.00;;;;;;5092535;28;20586;-68
2021/01/25 11:53:57;;;;;;;3.50;2.50;;;4.80;1.00;;;;;;5093031;28;20543;-69
2021/01/25 11:56:24;;;;;;;2.60;2.10;;;4.60;1.00;;;;;;5092686;28;20945;-68
2021/01/25 11:58:51;;;;;;;2.90;2.00;;;4.80;1.00;;;;;;5092791;28;20556;-68
2021/01/25 12:01:17;;;;;;;2.57;2.00;;;4.70;1.00;;;;;;5092511;28;20480;-68
2021/01/25 12:03:44;;;;;;;6.30;2.10;;;4.80;1.00;;;;;;5092820;28;20591;-68
2021/01/25 12:06:12;;;;;;;2.33;2.00;;;4.60;1.00;;;;;;5092740;28;20455;-68
2021/01/25 12:08:40;;;;;;;5.00;2.00;;;4.70;1.00;;;;;;5092214;28;20536;-68
2021/01/25 12:11:07;;;;;;;6.33;2.47;;;4.80;1.00;;;;;;5092453;28;20457;-68
2021/01/25 12:13:34;;;;;;;2.10;1.73;;;4.60;1.00;;;;;;5092173;28;20497;-68
2021/01/25 12:16:00;;;;;;;2.40;1.90;;;4.70;1.00;;;;;;5093047;28;20524;-68
2021/01/25 12:18:27;;;;;;;4.80;1.70;;;4.90;1.00;;;;;;5092310;28;20876;-68
2021/01/25 12:20:54;;;;;;;5.37;1.50;;;4.70;1.00;;;;;;5092511;28;20516;-68
2021/01/25 12:23:21;;;;;;;1.43;1.20;;;4.60;1.00;;;;;;5092086;28;20536;-68
2021/01/25 12:25:48;;;;;;;2.37;1.60;;;4.80;1.00;;;;;;5092536;28;20456;-68
2021/01/25 12:28:15;;;;;;;2.60;1.83;;;4.80;1.00;;;;;;5092215;28;20501;-68
2021/01/25 12:30:42;;;;;;;5.07;2.03;;;5.00;1.00;;;;;;5091854;28;20519;-68
2021/01/25 12:33:08;;;;;;;4.70;1.83;;;5.10;99.90;;;;;;5092154;28;20542;-68
2021/01/25 12:35:35;;;;;;;3.63;1.47;;;5.40;99.90;;;;;;5091635;28;20487;-68
2021/01/25 12:38:03;;;;;;;3.27;1.47;;;5.40;99.90;;;;;;5092530;28;20487;-68
2021/01/25 12:40:29;;;;;;;3.70;1.30;;;5.50;13.90;;;;;;5091521;28;20472;-68
2021/01/25 12:42:57;;;;;;;1.20;1.10;;;5.40;40.90;;;;;;5056286;28;20448;-68
2021/01/25 12:45:25;;;;;;;1.80;1.60;;;5.20;1.00;;;;;;5091774;28;20476;-69
2021/01/25 12:47:51;;;;;;;4.37;1.70;;;5.20;99.90;;;;;;5091155;28;20472;-68
2021/01/25 12:50:19;;;;;;;1.87;1.40;;;5.00;1.00;;;;;;5091564;28;20563;-69
2021/01/25 12:52:45;;;;;;;1.43;1.33;;;5.10;1.00;;;;;;5091485;28;20536;-68
2021/01/25 12:55:13;;;;;;;1.73;1.30;;;5.30;99.90;;;;;;5091715;28;20578;-68
2021/01/25 12:57:41;;;;;;;4.23;1.53;;;5.30;99.90;;;;;;5091611;28;20447;-68
2021/01/25 13:00:12;;;;;;;1.07;0.80;;;5.00;99.90;;;;;;5091974;28;20525;-68